sensor_id;sensor_type;location;lat;lon;timestamp;P1;durP1;ratioP1;P2;durP2;ratioP2
58015;SDS011;43809;52.110;20.964;2023-11-18T00:00:26;13.27;;;8.33;;
58015;SDS011;43809;52.110;20.964;2023-11-18T00:02:27;14.07;;;7.78;;
58015;SDS011;43809;52.110;20.964;2023-11-18T00:04:29;13.60;;;7.88;;
58015;SDS011;43809;52.110;20.964;2023-11-18T00:06:30;11.13;;;7.30;;
58015;SDS011;43809;52.110;20.964;2023-11-18T00:08:31;11.98;;;7.40;;
58015;SDS011;43809;52.110;20.964;2023-11-18T00:10:32;12.07;;;6.38;;
58015;SDS011;43809;52.110;20.964;2023-11-18T00:12:33;11.07;;;7.05;;
58015;SDS011;43809;52.110;20.964;2023-11-18T00:14:36;11.43;;;7.47;;
58015;SDS011;43809;52.110;20.964;2023-11-18T00:16:37;11.80;;;7.55;;
58015;SDS011;43809;52.110;20.964;2023-11-18T00:18:39;12.20;;;7.70;;
58015;SDS011;43809;52.110;20.964;2023-11-18T00:20:40;11.85;;;7.10;;
58015;SDS011;43809;52.110;20.964;2023-11-18T00:22:41;10.10;;;6.25;;
58015;SDS011;43809;52.110;20.964;2023-11-18T00:24:42;13.07;;;6.95;;
58015;SDS011;43809;52.110;20.964;2023-11-18T00:26:44;11.13;;;6.65;;
58015;SDS011;43809;52.110;20.964;2023-11-18T00:28:44;10.27;;;6.13;;
58015;SDS011;43809;52.110;20.964;2023-11-18T00:30:45;12.05;;;7.22;;
58015;SDS011;43809;52.110;20.964;2023-11-18T00:32:46;13.20;;;7.25;;
58015;SDS011;43809;52.110;20.964;2023-11-18T00:34:47;13.18;;;7.57;;
58015;SDS011;43809;52.110;20.964;2023-11-18T00:36:48;11.15;;;7.40;;
58015;SDS011;43809;52.110;20.964;2023-11-18T00:38:49;10.52;;;6.25;;
58015;SDS011;43809;52.110;20.964;2023-11-18T00:40:50;10.15;;;6.18;;
58015;SDS011;43809;52.110;20.964;2023-11-18T00:42:51;8.97;;;5.70;;
58015;SDS011;43809;52.110;20.964;2023-11-18T00:44:52;11.25;;;6.68;;
58015;SDS011;43809;52.110;20.964;2023-11-18T00:46:55;10.25;;;5.78;;
58015;SDS011;43809;52.110;20.964;2023-11-18T00:48:58;11.32;;;6.72;;
58015;SDS011;43809;52.110;20.964;2023-11-18T00:50:58;10.05;;;6.22;;
58015;SDS011;43809;52.110;20.964;2023-11-18T00:52:59;12.35;;;5.97;;
58015;SDS011;43809;52.110;20.964;2023-11-18T00:55:02;8.07;;;5.13;;
58015;SDS011;43809;52.110;20.964;2023-11-18T00:57:03;10.68;;;6.35;;
58015;SDS011;43809;52.110;20.964;2023-11-18T00:59:04;9.93;;;6.22;;
58015;SDS011;43809;52.110;20.964;2023-11-18T01:01:07;10.38;;;6.60;;
58015;SDS011;43809;52.110;20.964;2023-11-18T01:03:08;11.63;;;7.13;;
58015;SDS011;43809;52.110;20.964;2023-11-18T01:07:12;11.48;;;6.70;;
58015;SDS011;43809;52.110;20.964;2023-11-18T01:09:13;10.13;;;5.93;;
58015;SDS011;43809;52.110;20.964;2023-11-18T01:11:17;9.63;;;6.50;;
58015;SDS011;43809;52.110;20.964;2023-11-18T01:13:22;10.27;;;5.70;;
58015;SDS011;43809;52.110;20.964;2023-11-18T01:15:23;8.52;;;5.13;;
58015;SDS011;43809;52.110;20.964;2023-11-18T01:17:24;8.82;;;5.47;;
58015;SDS011;43809;52.110;20.964;2023-11-18T01:19:31;10.40;;;5.85;;
58015;SDS011;43809;52.110;20.964;2023-11-18T01:21:32;10.25;;;6.20;;
58015;SDS011;43809;52.110;20.964;2023-11-18T01:23:33;9.63;;;5.45;;
58015;SDS011;43809;52.110;20.964;2023-11-18T01:25:35;8.93;;;5.65;;
58015;SDS011;43809;52.110;20.964;2023-11-18T01:27:35;11.43;;;6.78;;
58015;SDS011;43809;52.110;20.964;2023-11-18T01:29:36;10.68;;;5.63;;
58015;SDS011;43809;52.110;20.964;2023-11-18T01:31:37;9.07;;;5.90;;
58015;SDS011;43809;52.110;20.964;2023-11-18T01:33:41;9.75;;;6.68;;
58015;SDS011;43809;52.110;20.964;2023-11-18T01:35:42;9.20;;;5.80;;
58015;SDS011;43809;52.110;20.964;2023-11-18T01:37:50;10.77;;;5.70;;
58015;SDS011;43809;52.110;20.964;2023-11-18T01:39:51;8.30;;;5.20;;
58015;SDS011;43809;52.110;20.964;2023-11-18T01:41:52;9.55;;;6.05;;
58015;SDS011;43809;52.110;20.964;2023-11-18T01:43:52;9.63;;;5.65;;
58015;SDS011;43809;52.110;20.964;2023-11-18T01:45:53;8.60;;;5.35;;
58015;SDS011;43809;52.110;20.964;2023-11-18T01:47:54;11.05;;;7.13;;
58015;SDS011;43809;52.110;20.964;2023-11-18T01:49:55;10.98;;;6.68;;
58015;SDS011;43809;52.110;20.964;2023-11-18T01:51:58;9.98;;;6.10;;
58015;SDS011;43809;52.110;20.964;2023-11-18T01:54:02;12.05;;;6.90;;
58015;SDS011;43809;52.110;20.964;2023-11-18T01:56:06;12.93;;;7.72;;
58015;SDS011;43809;52.110;20.964;2023-11-18T02:00:11;13.05;;;7.15;;
58015;SDS011;43809;52.110;20.964;2023-11-18T02:02:17;10.23;;;6.32;;
58015;SDS011;43809;52.110;20.964;2023-11-18T02:04:20;10.93;;;6.47;;
58015;SDS011;43809;52.110;20.964;2023-11-18T02:06:21;10.95;;;6.20;;
58015;SDS011;43809;52.110;20.964;2023-11-18T02:08:22;8.25;;;5.40;;
58015;SDS011;43809;52.110;20.964;2023-11-18T02:10:23;7.72;;;5.32;;
58015;SDS011;43809;52.110;20.964;2023-11-18T02:14:27;8.00;;;5.35;;
58015;SDS011;43809;52.110;20.964;2023-11-18T02:16:29;9.23;;;5.78;;
58015;SDS011;43809;52.110;20.964;2023-11-18T02:18:30;7.97;;;4.95;;
58015;SDS011;43809;52.110;20.964;2023-11-18T02:20:31;9.07;;;5.50;;
58015;SDS011;43809;52.110;20.964;2023-11-18T02:22:32;9.20;;;5.97;;
58015;SDS011;43809;52.110;20.964;2023-11-18T02:24:35;7.95;;;5.15;;
58015;SDS011;43809;52.110;20.964;2023-11-18T02:26:38;6.15;;;4.70;;
58015;SDS011;43809;52.110;20.964;2023-11-18T02:28:39;6.78;;;4.93;;
58015;SDS011;43809;52.110;20.964;2023-11-18T02:30:40;6.55;;;4.60;;
58015;SDS011;43809;52.110;20.964;2023-11-18T02:32:53;6.50;;;4.43;;
58015;SDS011;43809;52.110;20.964;2023-11-18T02:34:58;7.10;;;5.05;;
58015;SDS011;43809;52.110;20.964;2023-11-18T02:37:02;8.02;;;5.10;;
58015;SDS011;43809;52.110;20.964;2023-11-18T02:39:11;8.88;;;5.43;;
58015;SDS011;43809;52.110;20.964;2023-11-18T02:41:16;8.13;;;5.38;;
58015;SDS011;43809;52.110;20.964;2023-11-18T02:43:19;7.78;;;4.40;;
58015;SDS011;43809;52.110;20.964;2023-11-18T02:45:20;6.72;;;4.50;;
58015;SDS011;43809;52.110;20.964;2023-11-18T02:47:21;7.55;;;4.32;;
58015;SDS011;43809;52.110;20.964;2023-11-18T02:51:49;9.30;;;5.15;;
58015;SDS011;43809;52.110;20.964;2023-11-18T02:53:50;8.27;;;5.15;;
58015;SDS011;43809;52.110;20.964;2023-11-18T02:55:51;8.20;;;5.13;;
58015;SDS011;43809;52.110;20.964;2023-11-18T02:57:52;7.03;;;4.80;;
58015;SDS011;43809;52.110;20.964;2023-11-18T02:59:53;8.57;;;5.50;;
58015;SDS011;43809;52.110;20.964;2023-11-18T03:01:54;8.68;;;5.65;;
58015;SDS011;43809;52.110;20.964;2023-11-18T03:03:58;7.82;;;5.25;;
58015;SDS011;43809;52.110;20.964;2023-11-18T03:05:59;8.82;;;5.75;;
58015;SDS011;43809;52.110;20.964;2023-11-18T03:08:00;7.63;;;5.38;;
58015;SDS011;43809;52.110;20.964;2023-11-18T03:10:01;7.70;;;4.68;;
58015;SDS011;43809;52.110;20.964;2023-11-18T03:12:03;8.55;;;5.60;;
58015;SDS011;43809;52.110;20.964;2023-11-18T03:14:03;7.95;;;5.60;;
58015;SDS011;43809;52.110;20.964;2023-11-18T03:16:08;6.30;;;4.67;;
58015;SDS011;43809;52.110;20.964;2023-11-18T03:18:17;7.70;;;5.07;;
58015;SDS011;43809;52.110;20.964;2023-11-18T03:20:22;8.90;;;5.78;;
58015;SDS011;43809;52.110;20.964;2023-11-18T03:22:23;9.48;;;5.43;;
58015;SDS011;43809;52.110;20.964;2023-11-18T03:24:26;7.88;;;4.80;;
58015;SDS011;43809;52.110;20.964;2023-11-18T03:26:27;9.00;;;5.47;;
58015;SDS011;43809;52.110;20.964;2023-11-18T03:28:28;8.98;;;5.43;;
58015;SDS011;43809;52.110;20.964;2023-11-18T03:30:29;8.32;;;5.50;;
58015;SDS011;43809;52.110;20.964;2023-11-18T03:32:32;8.00;;;4.63;;
58015;SDS011;43809;52.110;20.964;2023-11-18T03:34:32;6.95;;;4.53;;
58015;SDS011;43809;52.110;20.964;2023-11-18T03:36:33;7.43;;;4.53;;
58015;SDS011;43809;52.110;20.964;2023-11-18T03:38:34;5.93;;;3.90;;
58015;SDS011;43809;52.110;20.964;2023-11-18T03:40:41;9.00;;;6.07;;
58015;SDS011;43809;52.110;20.964;2023-11-18T03:42:42;7.80;;;5.28;;
58015;SDS011;43809;52.110;20.964;2023-11-18T03:44:43;8.18;;;4.57;;
58015;SDS011;43809;52.110;20.964;2023-11-18T03:46:48;7.47;;;4.40;;
58015;SDS011;43809;52.110;20.964;2023-11-18T03:48:48;5.57;;;3.83;;
58015;SDS011;43809;52.110;20.964;2023-11-18T03:50:49;6.82;;;4.07;;
58015;SDS011;43809;52.110;20.964;2023-11-18T03:52:50;6.68;;;4.07;;
58015;SDS011;43809;52.110;20.964;2023-11-18T03:54:51;7.28;;;4.50;;
58015;SDS011;43809;52.110;20.964;2023-11-18T03:56:52;6.65;;;4.28;;
58015;SDS011;43809;52.110;20.964;2023-11-18T03:58:53;6.60;;;4.25;;
58015;SDS011;43809;52.110;20.964;2023-11-18T04:00:53;6.78;;;4.18;;
58015;SDS011;43809;52.110;20.964;2023-11-18T04:02:57;6.22;;;4.03;;
58015;SDS011;43809;52.110;20.964;2023-11-18T04:07:28;7.80;;;4.28;;
58015;SDS011;43809;52.110;20.964;2023-11-18T04:09:29;8.05;;;4.57;;
58015;SDS011;43809;52.110;20.964;2023-11-18T04:11:30;4.95;;;3.63;;
58015;SDS011;43809;52.110;20.964;2023-11-18T04:13:31;5.15;;;3.90;;
58015;SDS011;43809;52.110;20.964;2023-11-18T04:15:32;7.85;;;4.93;;
58015;SDS011;43809;52.110;20.964;2023-11-18T04:17:32;6.20;;;4.10;;
58015;SDS011;43809;52.110;20.964;2023-11-18T04:19:34;6.45;;;4.15;;
58015;SDS011;43809;52.110;20.964;2023-11-18T04:21:35;5.30;;;4.10;;
58015;SDS011;43809;52.110;20.964;2023-11-18T04:23:39;5.35;;;3.40;;
58015;SDS011;43809;52.110;20.964;2023-11-18T04:25:40;7.75;;;4.50;;
58015;SDS011;43809;52.110;20.964;2023-11-18T04:27:48;5.45;;;3.55;;
58015;SDS011;43809;52.110;20.964;2023-11-18T04:29:49;4.45;;;3.22;;
58015;SDS011;43809;52.110;20.964;2023-11-18T04:31:50;6.13;;;3.90;;
58015;SDS011;43809;52.110;20.964;2023-11-18T04:33:50;5.75;;;4.15;;
58015;SDS011;43809;52.110;20.964;2023-11-18T04:35:51;6.43;;;3.78;;
58015;SDS011;43809;52.110;20.964;2023-11-18T04:37:52;6.07;;;4.03;;
58015;SDS011;43809;52.110;20.964;2023-11-18T04:39:53;5.50;;;3.78;;
58015;SDS011;43809;52.110;20.964;2023-11-18T04:42:02;5.03;;;3.58;;
58015;SDS011;43809;52.110;20.964;2023-11-18T04:44:03;5.80;;;4.07;;
58015;SDS011;43809;52.110;20.964;2023-11-18T04:46:03;5.78;;;3.78;;
58015;SDS011;43809;52.110;20.964;2023-11-18T04:48:06;5.32;;;3.47;;
58015;SDS011;43809;52.110;20.964;2023-11-18T04:50:09;6.57;;;4.00;;
58015;SDS011;43809;52.110;20.964;2023-11-18T04:52:10;5.85;;;4.03;;
58015;SDS011;43809;52.110;20.964;2023-11-18T04:54:11;4.28;;;3.25;;
58015;SDS011;43809;52.110;20.964;2023-11-18T04:56:12;5.25;;;3.50;;
58015;SDS011;43809;52.110;20.964;2023-11-18T04:58:14;5.57;;;3.70;;
58015;SDS011;43809;52.110;20.964;2023-11-18T05:00:16;5.78;;;3.97;;
58015;SDS011;43809;52.110;20.964;2023-11-18T05:02:23;5.78;;;4.00;;
58015;SDS011;43809;52.110;20.964;2023-11-18T05:04:24;5.20;;;3.63;;
58015;SDS011;43809;52.110;20.964;2023-11-18T05:06:25;5.30;;;3.70;;
58015;SDS011;43809;52.110;20.964;2023-11-18T05:08:26;5.93;;;3.95;;
58015;SDS011;43809;52.110;20.964;2023-11-18T05:10:34;5.82;;;4.35;;
58015;SDS011;43809;52.110;20.964;2023-11-18T05:12:36;4.57;;;3.88;;
58015;SDS011;43809;52.110;20.964;2023-11-18T05:14:46;5.27;;;3.80;;
58015;SDS011;43809;52.110;20.964;2023-11-18T05:18:50;5.75;;;3.80;;
58015;SDS011;43809;52.110;20.964;2023-11-18T05:20:51;5.47;;;3.65;;
58015;SDS011;43809;52.110;20.964;2023-11-18T05:22:52;4.80;;;3.45;;
58015;SDS011;43809;52.110;20.964;2023-11-18T05:24:53;5.40;;;3.75;;
58015;SDS011;43809;52.110;20.964;2023-11-18T05:27:01;5.90;;;3.58;;
58015;SDS011;43809;52.110;20.964;2023-11-18T05:29:02;4.50;;;3.60;;
58015;SDS011;43809;52.110;20.964;2023-11-18T05:31:03;7.18;;;4.13;;
58015;SDS011;43809;52.110;20.964;2023-11-18T05:33:05;5.88;;;3.70;;
58015;SDS011;43809;52.110;20.964;2023-11-18T05:35:06;5.05;;;3.72;;
58015;SDS011;43809;52.110;20.964;2023-11-18T05:37:07;4.63;;;3.22;;
58015;SDS011;43809;52.110;20.964;2023-11-18T05:39:08;5.22;;;3.70;;
58015;SDS011;43809;52.110;20.964;2023-11-18T05:41:11;5.10;;;3.30;;
58015;SDS011;43809;52.110;20.964;2023-11-18T05:43:17;6.03;;;3.95;;
58015;SDS011;43809;52.110;20.964;2023-11-18T05:45:21;4.30;;;3.60;;
58015;SDS011;43809;52.110;20.964;2023-11-18T05:47:51;4.03;;;3.10;;
58015;SDS011;43809;52.110;20.964;2023-11-18T05:49:52;4.53;;;3.08;;
58015;SDS011;43809;52.110;20.964;2023-11-18T05:51:52;4.40;;;3.08;;
58015;SDS011;43809;52.110;20.964;2023-11-18T05:53:53;4.22;;;3.00;;
58015;SDS011;43809;52.110;20.964;2023-11-18T05:55:54;4.63;;;3.58;;
58015;SDS011;43809;52.110;20.964;2023-11-18T05:57:55;4.55;;;3.72;;
58015;SDS011;43809;52.110;20.964;2023-11-18T05:59:55;4.70;;;3.42;;
58015;SDS011;43809;52.110;20.964;2023-11-18T06:01:56;4.90;;;3.53;;
58015;SDS011;43809;52.110;20.964;2023-11-18T06:03:57;4.57;;;3.80;;
58015;SDS011;43809;52.110;20.964;2023-11-18T06:06:03;5.45;;;3.60;;
58015;SDS011;43809;52.110;20.964;2023-11-18T06:08:07;5.15;;;3.42;;
58015;SDS011;43809;52.110;20.964;2023-11-18T06:10:08;5.38;;;3.45;;
58015;SDS011;43809;52.110;20.964;2023-11-18T06:12:09;4.30;;;3.20;;
58015;SDS011;43809;52.110;20.964;2023-11-18T06:14:10;5.43;;;3.95;;
58015;SDS011;43809;52.110;20.964;2023-11-18T06:16:13;5.57;;;4.05;;
58015;SDS011;43809;52.110;20.964;2023-11-18T06:18:17;4.85;;;3.78;;
58015;SDS011;43809;52.110;20.964;2023-11-18T06:20:19;6.82;;;4.07;;
58015;SDS011;43809;52.110;20.964;2023-11-18T06:24:45;6.40;;;4.05;;
58015;SDS011;43809;52.110;20.964;2023-11-18T06:26:46;5.63;;;3.80;;
58015;SDS011;43809;52.110;20.964;2023-11-18T06:28:47;5.70;;;3.85;;
58015;SDS011;43809;52.110;20.964;2023-11-18T06:30:56;5.95;;;3.95;;
58015;SDS011;43809;52.110;20.964;2023-11-18T06:32:57;7.28;;;4.05;;
58015;SDS011;43809;52.110;20.964;2023-11-18T06:34:57;5.45;;;3.65;;
58015;SDS011;43809;52.110;20.964;2023-11-18T06:36:59;4.82;;;3.50;;
58015;SDS011;43809;52.110;20.964;2023-11-18T06:38:59;6.38;;;3.70;;
58015;SDS011;43809;52.110;20.964;2023-11-18T06:41:01;5.28;;;3.75;;
58015;SDS011;43809;52.110;20.964;2023-11-18T06:45:05;5.25;;;3.30;;
58015;SDS011;43809;52.110;20.964;2023-11-18T06:47:07;5.33;;;3.93;;
58015;SDS011;43809;52.110;20.964;2023-11-18T06:49:08;7.78;;;4.03;;
58015;SDS011;43809;52.110;20.964;2023-11-18T06:51:11;4.95;;;3.65;;
58015;SDS011;43809;52.110;20.964;2023-11-18T06:53:21;5.55;;;3.42;;
58015;SDS011;43809;52.110;20.964;2023-11-18T06:55:22;4.75;;;3.33;;
58015;SDS011;43809;52.110;20.964;2023-11-18T06:57:22;5.13;;;3.30;;
58015;SDS011;43809;52.110;20.964;2023-11-18T06:59:23;6.78;;;3.80;;
58015;SDS011;43809;52.110;20.964;2023-11-18T07:01:24;5.55;;;3.30;;
58015;SDS011;43809;52.110;20.964;2023-11-18T07:03:25;6.03;;;3.88;;
58015;SDS011;43809;52.110;20.964;2023-11-18T07:05:26;6.78;;;3.63;;
58015;SDS011;43809;52.110;20.964;2023-11-18T07:07:28;4.30;;;3.25;;
58015;SDS011;43809;52.110;20.964;2023-11-18T07:09:29;6.05;;;3.78;;
58015;SDS011;43809;52.110;20.964;2023-11-18T07:11:29;4.15;;;3.25;;
58015;SDS011;43809;52.110;20.964;2023-11-18T07:13:33;5.00;;;3.40;;
58015;SDS011;43809;52.110;20.964;2023-11-18T07:15:37;3.72;;;3.05;;
58015;SDS011;43809;52.110;20.964;2023-11-18T07:17:37;5.57;;;3.80;;
58015;SDS011;43809;52.110;20.964;2023-11-18T07:19:41;5.28;;;3.83;;
58015;SDS011;43809;52.110;20.964;2023-11-18T07:21:43;5.38;;;3.28;;
58015;SDS011;43809;52.110;20.964;2023-11-18T07:23:44;8.50;;;4.13;;
58015;SDS011;43809;52.110;20.964;2023-11-18T07:25:45;7.22;;;4.00;;
58015;SDS011;43809;52.110;20.964;2023-11-18T07:27:46;5.80;;;4.15;;
58015;SDS011;43809;52.110;20.964;2023-11-18T07:29:47;7.90;;;4.47;;
58015;SDS011;43809;52.110;20.964;2023-11-18T07:31:48;7.20;;;3.90;;
58015;SDS011;43809;52.110;20.964;2023-11-18T07:33:49;7.83;;;4.00;;
58015;SDS011;43809;52.110;20.964;2023-11-18T07:35:51;8.10;;;4.20;;
58015;SDS011;43809;52.110;20.964;2023-11-18T07:37:53;5.47;;;3.92;;
58015;SDS011;43809;52.110;20.964;2023-11-18T07:39:54;5.68;;;4.00;;
58015;SDS011;43809;52.110;20.964;2023-11-18T07:41:55;9.20;;;4.38;;
58015;SDS011;43809;52.110;20.964;2023-11-18T07:44:03;6.85;;;4.28;;
58015;SDS011;43809;52.110;20.964;2023-11-18T07:46:03;8.70;;;4.32;;
58015;SDS011;43809;52.110;20.964;2023-11-18T07:48:05;7.88;;;4.95;;
58015;SDS011;43809;52.110;20.964;2023-11-18T07:52:08;7.65;;;5.15;;
58015;SDS011;43809;52.110;20.964;2023-11-18T07:54:10;5.75;;;3.95;;
58015;SDS011;43809;52.110;20.964;2023-11-18T07:56:10;6.72;;;4.43;;
58015;SDS011;43809;52.110;20.964;2023-11-18T08:00:13;7.88;;;4.45;;
58015;SDS011;43809;52.110;20.964;2023-11-18T08:02:15;6.63;;;4.60;;
58015;SDS011;43809;52.110;20.964;2023-11-18T08:04:18;8.47;;;4.57;;
58015;SDS011;43809;52.110;20.964;2023-11-18T08:06:24;8.10;;;5.03;;
58015;SDS011;43809;52.110;20.964;2023-11-18T08:08:26;9.32;;;5.07;;
58015;SDS011;43809;52.110;20.964;2023-11-18T08:10:28;6.72;;;4.50;;
58015;SDS011;43809;52.110;20.964;2023-11-18T08:12:29;7.47;;;5.07;;
58015;SDS011;43809;52.110;20.964;2023-11-18T08:14:30;8.65;;;5.05;;
58015;SDS011;43809;52.110;20.964;2023-11-18T08:16:31;8.93;;;5.30;;
58015;SDS011;43809;52.110;20.964;2023-11-18T08:18:33;7.33;;;5.13;;
58015;SDS011;43809;52.110;20.964;2023-11-18T08:20:33;8.52;;;4.78;;
58015;SDS011;43809;52.110;20.964;2023-11-18T08:22:37;7.35;;;4.70;;
58015;SDS011;43809;52.110;20.964;2023-11-18T08:24:38;6.05;;;4.28;;
58015;SDS011;43809;52.110;20.964;2023-11-18T08:26:38;7.35;;;4.72;;
58015;SDS011;43809;52.110;20.964;2023-11-18T08:28:39;9.35;;;4.90;;
58015;SDS011;43809;52.110;20.964;2023-11-18T08:30:41;12.03;;;5.20;;
58015;SDS011;43809;52.110;20.964;2023-11-18T08:32:42;10.75;;;5.60;;
58015;SDS011;43809;52.110;20.964;2023-11-18T08:34:46;10.00;;;5.45;;
58015;SDS011;43809;52.110;20.964;2023-11-18T08:36:46;8.57;;;4.57;;
58015;SDS011;43809;52.110;20.964;2023-11-18T08:38:47;7.90;;;4.72;;
58015;SDS011;43809;52.110;20.964;2023-11-18T08:40:48;7.63;;;4.82;;
58015;SDS011;43809;52.110;20.964;2023-11-18T08:42:52;10.75;;;5.10;;
58015;SDS011;43809;52.110;20.964;2023-11-18T08:44:54;8.63;;;4.70;;
58015;SDS011;43809;52.110;20.964;2023-11-18T08:46:56;8.48;;;4.82;;
58015;SDS011;43809;52.110;20.964;2023-11-18T08:48:58;6.93;;;4.40;;
58015;SDS011;43809;52.110;20.964;2023-11-18T08:50:58;7.53;;;5.13;;
58015;SDS011;43809;52.110;20.964;2023-11-18T08:53:00;9.80;;;5.20;;
58015;SDS011;43809;52.110;20.964;2023-11-18T08:55:04;8.50;;;5.07;;
58015;SDS011;43809;52.110;20.964;2023-11-18T08:57:18;7.55;;;4.35;;
58015;SDS011;43809;52.110;20.964;2023-11-18T08:59:32;7.85;;;5.10;;
58015;SDS011;43809;52.110;20.964;2023-11-18T09:01:33;9.40;;;5.45;;
58015;SDS011;43809;52.110;20.964;2023-11-18T09:03:34;9.70;;;6.05;;
58015;SDS011;43809;52.110;20.964;2023-11-18T09:05:35;7.50;;;5.05;;
58015;SDS011;43809;52.110;20.964;2023-11-18T09:07:36;9.00;;;5.35;;
58015;SDS011;43809;52.110;20.964;2023-11-18T09:09:37;8.32;;;5.78;;
58015;SDS011;43809;52.110;20.964;2023-11-18T09:11:40;8.95;;;5.80;;
58015;SDS011;43809;52.110;20.964;2023-11-18T09:13:42;8.23;;;5.25;;
58015;SDS011;43809;52.110;20.964;2023-11-18T09:15:45;8.40;;;5.45;;
58015;SDS011;43809;52.110;20.964;2023-11-18T09:17:45;10.73;;;6.20;;
58015;SDS011;43809;52.110;20.964;2023-11-18T09:19:46;8.93;;;5.55;;
58015;SDS011;43809;52.110;20.964;2023-11-18T09:21:47;9.23;;;5.82;;
58015;SDS011;43809;52.110;20.964;2023-11-18T09:23:49;10.73;;;5.90;;
58015;SDS011;43809;52.110;20.964;2023-11-18T09:25:53;10.00;;;5.40;;
58015;SDS011;43809;52.110;20.964;2023-11-18T09:27:54;10.02;;;5.43;;
58015;SDS011;43809;52.110;20.964;2023-11-18T09:29:54;11.48;;;6.15;;
58015;SDS011;43809;52.110;20.964;2023-11-18T09:31:55;9.60;;;5.55;;
58015;SDS011;43809;52.110;20.964;2023-11-18T09:33:59;10.07;;;5.78;;
58015;SDS011;43809;52.110;20.964;2023-11-18T09:36:00;10.82;;;5.82;;
58015;SDS011;43809;52.110;20.964;2023-11-18T09:38:01;11.70;;;6.63;;
58015;SDS011;43809;52.110;20.964;2023-11-18T09:40:07;13.27;;;7.03;;
58015;SDS011;43809;52.110;20.964;2023-11-18T09:42:13;11.38;;;6.63;;
58015;SDS011;43809;52.110;20.964;2023-11-18T09:44:19;10.55;;;6.40;;
58015;SDS011;43809;52.110;20.964;2023-11-18T09:46:27;11.38;;;6.30;;
58015;SDS011;43809;52.110;20.964;2023-11-18T09:48:32;10.10;;;6.20;;
58015;SDS011;43809;52.110;20.964;2023-11-18T09:50:41;10.85;;;6.25;;
58015;SDS011;43809;52.110;20.964;2023-11-18T09:52:48;10.88;;;6.82;;
58015;SDS011;43809;52.110;20.964;2023-11-18T09:54:59;11.43;;;6.25;;
58015;SDS011;43809;52.110;20.964;2023-11-18T09:57:47;8.60;;;5.95;;
58015;SDS011;43809;52.110;20.964;2023-11-18T09:59:33;10.13;;;6.43;;
58015;SDS011;43809;52.110;20.964;2023-11-18T10:01:38;9.40;;;5.90;;
58015;SDS011;43809;52.110;20.964;2023-11-18T10:03:40;10.57;;;5.95;;
58015;SDS011;43809;52.110;20.964;2023-11-18T10:05:42;12.15;;;7.28;;
58015;SDS011;43809;52.110;20.964;2023-11-18T10:07:46;10.57;;;6.65;;
58015;SDS011;43809;52.110;20.964;2023-11-18T10:09:48;11.10;;;6.50;;
58015;SDS011;43809;52.110;20.964;2023-11-18T10:11:49;10.00;;;6.20;;
58015;SDS011;43809;52.110;20.964;2023-11-18T10:13:50;8.90;;;5.40;;
58015;SDS011;43809;52.110;20.964;2023-11-18T10:15:52;12.07;;;6.25;;
58015;SDS011;43809;52.110;20.964;2023-11-18T10:17:53;11.65;;;6.60;;
58015;SDS011;43809;52.110;20.964;2023-11-18T10:19:59;9.15;;;6.00;;
58015;SDS011;43809;52.110;20.964;2023-11-18T10:22:00;10.98;;;6.80;;
58015;SDS011;43809;52.110;20.964;2023-11-18T10:24:01;9.90;;;6.43;;
58015;SDS011;43809;52.110;20.964;2023-11-18T10:26:03;10.80;;;6.82;;
58015;SDS011;43809;52.110;20.964;2023-11-18T10:28:04;10.43;;;6.07;;
58015;SDS011;43809;52.110;20.964;2023-11-18T10:30:05;12.38;;;6.38;;
58015;SDS011;43809;52.110;20.964;2023-11-18T10:32:19;10.70;;;6.57;;
58015;SDS011;43809;52.110;20.964;2023-11-18T10:34:21;12.18;;;7.10;;
58015;SDS011;43809;52.110;20.964;2023-11-18T10:36:22;9.57;;;6.22;;
58015;SDS011;43809;52.110;20.964;2023-11-18T10:38:24;9.27;;;6.00;;
58015;SDS011;43809;52.110;20.964;2023-11-18T10:40:25;7.27;;;5.07;;
58015;SDS011;43809;52.110;20.964;2023-11-18T10:42:28;10.15;;;5.95;;
58015;SDS011;43809;52.110;20.964;2023-11-18T10:44:30;8.98;;;6.07;;
58015;SDS011;43809;52.110;20.964;2023-11-18T10:46:31;11.35;;;6.25;;
58015;SDS011;43809;52.110;20.964;2023-11-18T10:48:32;11.52;;;7.05;;
58015;SDS011;43809;52.110;20.964;2023-11-18T10:50:33;10.82;;;6.32;;
58015;SDS011;43809;52.110;20.964;2023-11-18T10:52:34;10.07;;;6.55;;
58015;SDS011;43809;52.110;20.964;2023-11-18T10:54:50;10.43;;;6.13;;
58015;SDS011;43809;52.110;20.964;2023-11-18T10:56:54;12.48;;;6.72;;
58015;SDS011;43809;52.110;20.964;2023-11-18T10:58:59;9.82;;;6.07;;
58015;SDS011;43809;52.110;20.964;2023-11-18T11:01:06;9.73;;;6.40;;
58015;SDS011;43809;52.110;20.964;2023-11-18T11:03:12;12.15;;;6.43;;
58015;SDS011;43809;52.110;20.964;2023-11-18T11:05:30;8.60;;;5.57;;
58015;SDS011;43809;52.110;20.964;2023-11-18T11:07:38;8.38;;;5.22;;
58015;SDS011;43809;52.110;20.964;2023-11-18T11:09:39;10.35;;;6.38;;
58015;SDS011;43809;52.110;20.964;2023-11-18T11:11:45;11.10;;;7.20;;
58015;SDS011;43809;52.110;20.964;2023-11-18T11:13:50;11.68;;;7.15;;
58015;SDS011;43809;52.110;20.964;2023-11-18T11:15:56;11.07;;;6.63;;
58015;SDS011;43809;52.110;20.964;2023-11-18T11:18:01;11.45;;;6.72;;
58015;SDS011;43809;52.110;20.964;2023-11-18T11:20:09;9.82;;;6.35;;
58015;SDS011;43809;52.110;20.964;2023-11-18T11:22:34;11.55;;;6.90;;
58015;SDS011;43809;52.110;20.964;2023-11-18T11:31:31;10.07;;;6.18;;
58015;SDS011;43809;52.110;20.964;2023-11-18T11:33:33;10.02;;;6.43;;
58015;SDS011;43809;52.110;20.964;2023-11-18T11:35:41;10.15;;;6.38;;
58015;SDS011;43809;52.110;20.964;2023-11-18T11:37:46;11.77;;;7.20;;
58015;SDS011;43809;52.110;20.964;2023-11-18T11:39:49;12.85;;;7.45;;
58015;SDS011;43809;52.110;20.964;2023-11-18T11:41:54;10.02;;;6.47;;
58015;SDS011;43809;52.110;20.964;2023-11-18T11:43:59;11.00;;;7.30;;
58015;SDS011;43809;52.110;20.964;2023-11-18T11:46:01;11.18;;;6.97;;
58015;SDS011;43809;52.110;20.964;2023-11-18T11:48:10;11.30;;;7.03;;
58015;SDS011;43809;52.110;20.964;2023-11-18T11:50:22;10.93;;;7.13;;
58015;SDS011;43809;52.110;20.964;2023-11-18T11:52:32;10.45;;;6.20;;
58015;SDS011;43809;52.110;20.964;2023-11-18T11:54:40;9.70;;;6.40;;
58015;SDS011;43809;52.110;20.964;2023-11-18T11:56:44;14.98;;;8.25;;
58015;SDS011;43809;52.110;20.964;2023-11-18T11:58:47;12.10;;;7.07;;
58015;SDS011;43809;52.110;20.964;2023-11-18T12:00:53;10.60;;;6.97;;
58015;SDS011;43809;52.110;20.964;2023-11-18T12:02:55;11.98;;;7.45;;
58015;SDS011;43809;52.110;20.964;2023-11-18T12:04:56;14.10;;;7.70;;
58015;SDS011;43809;52.110;20.964;2023-11-18T12:06:58;10.05;;;6.97;;
58015;SDS011;43809;52.110;20.964;2023-11-18T12:09:05;12.32;;;7.60;;
58015;SDS011;43809;52.110;20.964;2023-11-18T12:11:06;12.98;;;6.68;;
58015;SDS011;43809;52.110;20.964;2023-11-18T12:13:10;12.10;;;7.70;;
58015;SDS011;43809;52.110;20.964;2023-11-18T12:15:17;12.23;;;7.18;;
58015;SDS011;43809;52.110;20.964;2023-11-18T12:19:53;11.68;;;7.60;;
58015;SDS011;43809;52.110;20.964;2023-11-18T12:21:59;12.02;;;7.00;;
58015;SDS011;43809;52.110;20.964;2023-11-18T12:24:34;12.55;;;7.10;;
58015;SDS011;43809;52.110;20.964;2023-11-18T12:26:39;10.38;;;6.10;;
58015;SDS011;43809;52.110;20.964;2023-11-18T12:28:44;13.38;;;7.88;;
58015;SDS011;43809;52.110;20.964;2023-11-18T12:30:46;13.98;;;8.25;;
58015;SDS011;43809;52.110;20.964;2023-11-18T12:32:59;13.88;;;8.10;;
58015;SDS011;43809;52.110;20.964;2023-11-18T12:35:06;12.20;;;7.95;;
58015;SDS011;43809;52.110;20.964;2023-11-18T12:37:26;13.95;;;8.23;;